Time;durP1;ratioP1;P1;durP2;ratioP2;P2;SDS_P1;SDS_P2;PMS_P1;PMS_P2;Temp;Humidity;BMP_temperature;BMP_pressure;BME280_temperature;BME280_humidity;BME280_pressure;Samples;Min_cycle;Max_cycle;Signal;HPM_P1;HPM_P2
2023/05/26 00:00:52;;;;;;;;;11.50;10.75;;;;;19.29;47.55;101933.97;2072388;28;45836;-62
2023/05/26 00:01:52;;;;;;;;;11.00;9.75;;;;;19.29;47.97;101942.06;2072014;28;45435;-61
2023/05/26 00:02:53;;;;;;;;;10.50;9.50;;;;;19.29;47.94;101938.50;2072003;28;45249;-62
2023/05/26 00:03:53;;;;;;;;;12.00;12.00;;;;;19.28;47.80;101936.72;2071434;28;45972;-62
2023/05/26 00:04:58;;;;;;;;;10.25;10.25;;;;;19.27;47.78;101934.97;2071057;28;44946;-60
2023/05/26 00:05:58;;;;;;;;;12.20;12.20;;;;;19.24;47.90;101933.28;2063832;28;46178;-62
2023/05/26 00:06:58;;;;;;;;;11.75;10.00;;;;;19.24;48.06;101935.09;2070736;28;45900;-62
2023/05/26 00:07:59;;;;;;;;;9.50;9.00;;;;;19.23;48.14;101926.16;2080547;28;46449;-60
2023/05/26 00:08:59;;;;;;;;;9.00;8.75;;;;;19.22;47.98;101932.47;2076084;28;45980;-62
2023/05/26 00:09:59;;;;;;;;;11.00;10.75;;;;;19.22;47.70;101929.78;2073195;28;46659;-63
2023/05/26 00:11:01;;;;;;;;;13.25;12.25;;;;;19.21;48.22;101929.84;2076474;28;45682;-62
2023/05/26 00:12:02;;;;;;;;;9.80;8.80;;;;;19.19;48.47;101931.72;2071941;28;45666;-63
2023/05/26 00:13:03;;;;;;;;;9.67;8.33;;;;;19.18;48.17;101933.50;2071216;28;45033;-60
2023/05/26 00:14:04;;;;;;;;;10.00;10.00;;;;;19.18;48.02;101932.63;2067793;28;45683;-62
2023/05/26 00:15:05;;;;;;;;;10.25;10.25;;;;;19.15;47.92;101933.63;2072828;28;45779;-61
2023/05/26 00:16:05;;;;;;;;;10.80;9.80;;;;;19.14;48.14;101928.31;2077944;28;45627;-62
2023/05/26 00:17:06;;;;;;;;;11.00;11.00;;;;;19.11;48.25;101930.19;2071652;28;47734;-62
2023/05/26 00:18:07;;;;;;;;;11.40;10.00;;;;;19.09;48.08;101936.56;2073050;28;45081;-61
2023/05/26 00:19:08;;;;;;;;;11.75;11.75;;;;;19.07;48.31;101925.00;2079476;28;45706;-62
2023/05/26 00:20:10;;;;;;;;;10.40;9.40;;;;;19.06;48.31;101926.81;2074028;28;45954;-62
2023/05/26 00:21:11;;;;;;;;;11.80;11.80;;;;;19.05;48.19;101930.41;2073080;28;46195;-61
2023/05/26 00:22:14;;;;;;;;;12.25;11.50;;;;;19.04;48.18;101931.34;2076753;28;45515;-61
2023/05/26 00:23:14;;;;;;;;;10.60;10.60;;;;;19.03;48.45;101921.53;2071927;28;45893;-64
2023/05/26 00:24:14;;;;;;;;;9.00;9.00;;;;;19.01;48.61;101925.22;2071654;28;45971;-61
2023/05/26 00:25:15;;;;;;;;;9.50;9.50;;;;;18.99;48.44;101930.66;2071753;28;46866;-61
2023/05/26 00:26:15;;;;;;;;;12.00;12.00;;;;;18.98;48.43;101928.03;2072046;28;45558;-62
2023/05/26 00:27:16;;;;;;;;;12.50;12.00;;;;;18.97;48.39;101920.88;2075507;28;46879;-62
2023/05/26 00:28:16;;;;;;;;;8.75;7.75;;;;;18.97;48.69;101928.97;2075970;28;45853;-62
2023/05/26 00:29:17;;;;;;;;;11.25;11.25;;;;;18.96;48.62;101917.31;2077287;28;46290;-62
2023/05/26 00:30:18;;;;;;;;;13.20;13.20;;;;;18.95;48.49;101920.06;2079043;28;46193;-58
2023/05/26 00:31:18;;;;;;;;;11.75;10.50;;;;;18.93;48.58;101927.28;2074385;28;45387;-63
2023/05/26 00:32:18;;;;;;;;;14.25;13.75;;;;;18.91;48.83;101921.09;2079753;28;47410;-62
2023/05/26 00:33:19;;;;;;;;;13.25;12.00;;;;;18.89;48.91;101922.97;2073307;28;45506;-62
2023/05/26 00:34:19;;;;;;;;;13.50;12.25;;;;;18.87;48.57;101923.03;2071948;28;45612;-61
2023/05/26 00:35:20;;;;;;;;;9.50;9.50;;;;;18.84;48.82;101924.97;2063399;28;45827;-60
2023/05/26 00:36:20;;;;;;;;;11.75;10.00;;;;;18.81;49.26;101932.22;2072872;28;46596;-61
2023/05/26 00:37:21;;;;;;;;;12.00;12.00;;;;;18.80;48.69;101925.09;2079288;28;45582;-63
2023/05/26 00:38:22;;;;;;;;;12.40;12.40;;;;;18.80;49.09;101924.19;2078609;28;45284;-61
2023/05/26 00:39:22;;;;;;;;;12.50;12.50;;;;;18.78;49.28;101921.56;2073909;28;45420;-62
2023/05/26 00:40:22;;;;;;;;;9.25;8.25;;;;;18.79;49.10;101923.31;2079927;28;46703;-61
2023/05/26 00:41:23;;;;;;;;;12.25;12.25;;;;;18.78;49.18;101923.38;2066718;28;45795;-63
2023/05/26 00:42:23;;;;;;;;;12.75;12.75;;;;;18.76;49.11;101922.56;2066460;28;46048;-61
2023/05/26 00:43:24;;;;;;;;;12.75;12.75;;;;;18.74;49.22;101922.63;2079947;28;45627;-62
2023/05/26 00:44:24;;;;;;;;;16.00;13.75;;;;;18.72;49.30;101927.16;2077998;28;46744;-63
2023/05/26 00:45:24;;;;;;;;;11.50;11.25;;;;;18.70;49.22;101915.59;2071086;28;45439;-62
2023/05/26 00:46:25;;;;;;;;;11.25;11.25;;;;;18.70;49.24;101923.66;2072355;28;45870;-62
2023/05/26 00:47:25;;;;;;;;;12.25;12.25;;;;;18.70;49.38;101912.03;2073196;28;45210;-61
2023/05/26 00:48:25;;;;;;;;;9.50;9.50;;;;;18.69;49.41;101910.28;2080049;28;45519;-63
2023/05/26 00:49:26;;;;;;;;;10.00;10.00;;;;;18.68;49.38;101912.09;2075584;28;46268;-60
2023/05/26 00:50:27;;;;;;;;;16.75;14.75;;;;;18.68;49.50;101912.09;2073703;28;45554;-62
2023/05/26 00:51:27;;;;;;;;;12.00;11.75;;;;;18.67;49.54;101917.50;2080699;28;46423;-61
2023/05/26 00:52:29;;;;;;;;;14.00;11.75;;;;;18.66;49.45;101913.06;2079125;28;46494;-62
2023/05/26 00:53:29;;;;;;;;;14.00;14.00;;;;;18.66;49.43;101915.75;2076921;28;46617;-64
2023/05/26 00:54:30;;;;;;;;;10.25;10.25;;;;;18.67;49.45;101904.06;2074249;28;45919;-61
2023/05/26 00:55:32;;;;;;;;;14.60;14.60;;;;;18.64;49.70;101906.88;2072917;28;45715;-62
2023/05/26 00:56:35;;;;;;;;;13.20;13.00;;;;;18.63;49.58;101907.75;2072735;28;45376;-62
2023/05/26 00:57:36;;;;;;;;;15.00;15.00;;;;;18.62;49.93;101914.06;2078500;28;46417;-62
2023/05/26 00:58:37;;;;;;;;;16.60;13.40;;;;;18.60;49.88;101907.88;2073578;28;46748;-63
2023/05/26 00:59:38;;;;;;;;;12.80;12.80;;;;;18.58;49.52;101910.63;2081938;28;45880;-61
2023/05/26 01:00:38;;;;;;;;;14.00;13.00;;;;;18.56;50.18;101915.19;2077058;28;45663;-61
2023/05/26 01:01:39;;;;;;;;;11.00;11.00;;;;;18.55;50.08;101913.44;2072764;28;45044;-61
2023/05/26 01:02:40;;;;;;;;;13.40;13.40;;;;;18.55;49.90;101913.44;2071500;28;46763;-60
2023/05/26 01:03:40;;;;;;;;;15.75;13.50;;;;;18.54;50.03;101903.59;2071661;28;45162;-64
2023/05/26 01:04:41;;;;;;;;;20.00;18.25;;;;;18.51;49.85;101903.69;2072661;28;46400;-62
2023/05/26 01:05:41;;;;;;;;;13.50;13.50;;;;;18.51;50.12;101909.06;2074001;28;45814;-61
2023/05/26 01:06:44;;;;;;;;;14.50;14.50;;;;;18.52;50.21;101906.34;2073253;28;45896;-62
2023/05/26 01:07:44;;;;;;;;;15.20;12.80;;;;;18.50;50.38;101904.63;2081021;28;46521;-62
2023/05/26 01:08:45;;;;;;;;;14.50;14.00;;;;;18.49;50.17;101905.56;2074643;28;46219;-61
2023/05/26 01:09:45;;;;;;;;;11.75;11.75;;;;;18.48;50.31;101910.06;2072180;28;46477;-61
2023/05/26 01:10:46;;;;;;;;;14.50;14.50;;;;;18.48;50.07;101915.44;2077973;28;45393;-60
2023/05/26 01:11:54;;;;;;;;;15.25;15.25;;;;;18.47;50.41;101912.81;2076732;28;45565;-60
2023/05/26 01:13:00;;;;;;;;;16.80;15.00;;;;;18.46;50.37;101908.38;2080153;28;46235;-60
2023/05/26 01:14:11;;;;;;;;;13.60;12.80;;;;;18.45;50.49;101909.31;2065402;28;45456;-60
2023/05/26 01:15:17;;;;;;;;;17.80;16.00;;;;;18.44;50.48;101908.44;2076831;28;46111;-60
2023/05/26 01:16:23;;;;;;;;;15.60;15.40;;;;;18.44;50.78;101905.75;2077224;28;46223;-62
2023/05/26 01:17:32;;;;;;;;;17.60;16.00;;;;;18.42;50.33;101906.72;2081705;28;45670;-62
2023/05/26 01:18:43;;;;;;;;;16.20;15.80;;;;;18.40;50.61;101909.47;2075118;28;46029;-62
2023/05/26 01:20:07;;;;;;;;;11.80;11.80;;;;;18.38;50.58;101913.13;2075395;28;45793;-64
2023/05/26 01:21:10;;;;;;;;;16.40;15.60;;;;;18.37;50.57;101903.31;2066073;28;46796;-63
2023/05/26 01:22:23;;;;;;;;;15.00;14.00;;;;;18.35;50.66;101913.25;2078465;28;46782;-62
2023/05/26 01:23:47;;;;;;;;;15.20;15.00;;;;;18.32;50.71;101916.94;2072463;28;46076;-61
2023/05/26 01:25:13;;;;;;;;;15.80;15.20;;;;;18.31;51.05;101915.19;2071749;28;46749;-61
2023/05/26 01:26:24;;;;;;;;;15.80;15.60;;;;;18.31;50.50;101923.25;2072080;28;46093;-61
2023/05/26 01:27:56;;;;;;;;;15.80;14.80;;;;;18.32;51.04;101926.81;2076212;28;45741;-63
2023/05/26 01:29:01;;;;;;;;;15.80;15.80;;;;;18.30;50.88;101918.78;2046994;28;45971;-62
2023/05/26 01:30:02;;;;;;;;;14.00;13.60;;;;;18.29;51.47;101916.13;2052463;28;46314;-66
2023/05/26 01:31:02;;;;;;;;;18.40;17.00;;;;;18.27;51.02;101920.69;2047212;28;45178;-61
2023/05/26 01:32:08;;;;;;;;;20.00;17.25;;;;;18.26;50.91;101919.81;2048683;28;45079;-63
2023/05/26 01:33:08;;;;;;;;;15.20;15.20;;;;;18.24;51.21;101914.50;2051387;28;45690;-62
2023/05/26 01:34:09;;;;;;;;;12.25;12.25;;;;;18.23;51.05;101918.13;2054820;28;45751;-61
2023/05/26 01:35:10;;;;;;;;;15.00;15.00;;;;;18.22;51.04;101923.53;2055132;28;45699;-60
2023/05/26 01:36:10;;;;;;;;;16.25;14.25;;;;;18.22;51.26;101926.22;2040522;28;45580;-62
2023/05/26 01:37:11;;;;;;;;;16.25;16.00;;;;;18.19;51.35;101918.28;2039184;28;46721;-61
2023/05/26 01:38:12;;;;;;;;;14.25;14.25;;;;;18.18;51.42;101916.53;2052981;28;45654;-61
2023/05/26 01:39:12;;;;;;;;;18.20;15.60;;;;;18.18;51.16;101919.22;2050245;28;45989;-61
2023/05/26 01:40:13;;;;;;;;;16.00;14.25;;;;;18.19;51.50;101921.84;2054672;28;46415;-62
2023/05/26 01:41:26;;;;;;;;;17.80;16.60;;;;;18.19;51.23;101918.28;2052278;28;45602;-62
2023/05/26 01:42:33;;;;;;;;;19.00;17.00;;;;;18.19;51.52;101923.66;2053606;28;46432;-61
2023/05/26 01:43:51;;;;;;;;;19.40;15.60;;;;;18.17;51.58;101921.03;2055578;28;45710;-61
2023/05/26 01:44:58;;;;;;;;;14.80;14.60;;;;;18.15;51.50;101919.28;2054625;28;46533;-62
2023/05/26 01:46:10;;;;;;;;;14.20;13.80;;;;;18.13;51.59;101922.03;2052343;28;48258;-61
2023/05/26 01:47:13;;;;;;;;;16.00;16.00;;;;;18.12;51.64;101925.66;2054542;28;46090;-62
2023/05/26 01:48:15;;;;;;;;;20.80;19.00;;;;;18.12;51.83;101919.41;2048433;28;46343;-60
2023/05/26 01:49:18;;;;;;;;;20.00;18.80;;;;;18.10;51.63;101930.22;2051168;28;45626;-62
2023/05/26 01:50:22;;;;;;;;;17.60;16.60;;;;;18.10;51.76;101922.16;2047340;28;46452;-63
2023/05/26 01:51:25;;;;;;;;;19.00;18.80;;;;;18.09;51.80;101927.59;2053877;28;47544;-62
2023/05/26 01:52:27;;;;;;;;;16.60;14.20;;;;;18.08;51.64;101926.69;2039501;28;45791;-61
2023/05/26 01:53:31;;;;;;;;;20.20;17.00;;;;;18.08;51.69;101928.50;2041853;28;46369;-62
2023/05/26 01:54:39;;;;;;;;;16.60;14.80;;;;;18.07;51.81;101932.13;2045185;28;46403;-61
2023/05/26 01:55:42;;;;;;;;;15.00;14.60;;;;;18.06;51.71;101935.75;2050933;28;45889;-63
2023/05/26 01:56:44;;;;;;;;;15.80;15.80;;;;;18.06;51.61;101931.25;2049893;28;45739;-62
2023/05/26 01:57:46;;;;;;;;;16.80;16.80;;;;;18.05;51.78;101926.81;2054476;28;46587;-63
2023/05/26 01:58:48;;;;;;;;;18.40;15.00;;;;;18.04;52.18;101932.22;2051788;28;46616;-62
2023/05/26 01:59:48;;;;;;;;;17.80;15.40;;;;;18.02;52.00;101934.94;2055013;28;46843;-60
2023/05/26 02:00:48;;;;;;;;;20.00;19.50;;;;;18.02;51.86;101932.25;2047967;28;46313;-61
2023/05/26 02:01:49;;;;;;;;;16.50;14.75;;;;;18.00;51.91;101927.88;2047707;28;46095;-60
2023/05/26 02:02:49;;;;;;;;;15.25;13.75;;;;;18.00;51.76;101931.44;2048451;28;45707;-63
2023/05/26 02:03:50;;;;;;;;;16.50;16.50;;;;;18.00;51.91;101927.88;2044036;28;46470;-61
2023/05/26 02:04:50;;;;;;;;;17.50;16.00;;;;;18.00;52.14;101926.06;2039689;28;45137;-62
2023/05/26 02:05:50;;;;;;;;;18.25;15.50;;;;;18.00;52.00;101926.06;2035893;28;45573;-62
2023/05/26 02:06:52;;;;;;;;;17.75;16.00;;;;;18.01;52.07;101929.63;2073119;28;45599;-60
2023/05/26 02:07:52;;;;;;;;;17.60;17.60;;;;;17.99;51.90;101921.63;2080891;28;45297;-62
2023/05/26 02:08:53;;;;;;;;;15.50;15.50;;;;;18.00;52.02;101935.94;2077463;28;46588;-63
2023/05/26 02:09:53;;;;;;;;;17.00;16.75;;;;;17.98;52.06;101927.94;2071163;28;46912;-62
2023/05/26 02:10:53;;;;;;;;;22.00;18.00;;;;;17.98;52.09;101933.31;2076322;28;45578;-62
2023/05/26 02:11:54;;;;;;;;;22.50;19.25;;;;;17.96;52.09;101928.91;2067254;28;45092;-61
2023/05/26 02:12:54;;;;;;;;;13.00;12.00;;;;;17.94;52.13;101934.34;2065950;28;45844;-61
2023/05/26 02:13:55;;;;;;;;;16.25;16.25;;;;;17.93;52.52;101932.59;2078506;28;46109;-60
2023/05/26 02:14:55;;;;;;;;;17.25;16.25;;;;;17.90;52.34;101927.28;2069463;28;46413;-62
2023/05/26 02:15:55;;;;;;;;;15.00;14.75;;;;;17.89;52.30;101934.47;2072458;28;45745;-61
2023/05/26 02:16:56;;;;;;;;;19.75;19.75;;;;;17.90;52.11;101938.91;2072948;28;45242;-63
2023/05/26 02:17:57;;;;;;;;;19.50;19.25;;;;;17.89;52.31;101933.59;2073166;28;45605;-61
2023/05/26 02:18:57;;;;;;;;;15.60;15.60;;;;;17.87;52.20;101930.09;2072348;28;45810;-64
2023/05/26 02:19:57;;;;;;;;;15.75;15.75;;;;;17.87;52.21;101935.47;2076384;28;46995;-64
2023/05/26 02:20:58;;;;;;;;;16.00;15.25;;;;;17.86;52.37;101939.06;2080298;28;45649;-63
2023/05/26 02:21:58;;;;;;;;;17.50;17.50;;;;;17.84;52.29;101931.06;2080147;28;45667;-62
2023/05/26 02:22:58;;;;;;;;;20.00;17.50;;;;;17.83;52.34;101936.50;2072680;28;45042;-62
2023/05/26 02:23:59;;;;;;;;;16.00;16.00;;;;;17.82;52.23;101932.06;2071696;28;46078;-62
2023/05/26 02:24:59;;;;;;;;;20.75;19.25;;;;;17.80;52.67;101932.13;2070499;28;46675;-61
2023/05/26 02:26:00;;;;;;;;;17.00;15.75;;;;;17.80;52.59;101933.91;2064901;28;46319;-60
2023/05/26 02:27:00;;;;;;;;;16.25;16.25;;;;;17.78;52.38;101933.06;2072242;28;44983;-61
2023/05/26 02:28:00;;;;;;;;;16.75;15.75;;;;;17.76;52.98;101933.13;2073291;28;45722;-64
2023/05/26 02:29:01;;;;;;;;;18.25;17.00;;;;;17.74;52.53;101934.97;2071477;28;45696;-61
2023/05/26 02:30:02;;;;;;;;;16.20;15.60;;;;;17.72;52.69;101931.47;2068047;28;45761;-62
2023/05/26 02:31:02;;;;;;;;;19.75;17.25;;;;;17.70;52.45;101930.66;2079486;28;45600;-61
2023/05/26 02:32:02;;;;;;;;;16.00;16.00;;;;;17.70;52.75;101932.44;2080798;28;45595;-62
2023/05/26 02:33:04;;;;;;;;;18.50;18.25;;;;;17.68;53.11;101940.53;2079043;28;46793;-63
2023/05/26 02:34:05;;;;;;;;;17.40;16.00;;;;;17.68;52.50;101934.28;2080751;28;46343;-61
2023/05/26 02:35:06;;;;;;;;;15.80;15.00;;;;;17.65;53.03;101930.72;2079698;28;45818;-63
2023/05/26 02:36:07;;;;;;;;;22.00;18.80;;;;;17.64;52.79;101937.03;2078603;28;46212;-62
2023/05/26 02:37:07;;;;;;;;;18.50;18.50;;;;;17.64;52.85;101936.16;2079615;28;46605;-61
2023/05/26 02:38:07;;;;;;;;;19.00;17.75;;;;;17.62;52.79;101929.97;2080731;28;46398;-61
2023/05/26 02:39:08;;;;;;;;;17.00;17.00;;;;;17.62;52.72;101933.53;2073461;28;45790;-61
2023/05/26 02:40:09;;;;;;;;;18.25;16.75;;;;;17.61;53.57;101926.41;2073138;28;46086;-61
2023/05/26 02:41:09;;;;;;;;;17.50;16.75;;;;;17.60;52.94;101929.13;2073884;28;46313;-61
2023/05/26 02:42:10;;;;;;;;;16.00;15.00;;;;;17.59;53.35;101922.91;2073276;28;46466;-63
2023/05/26 02:43:10;;;;;;;;;15.50;15.50;;;;;17.58;52.92;101926.50;2072187;28;46304;-61
2023/05/26 02:44:11;;;;;;;;;14.25;12.50;;;;;17.58;52.92;101925.63;2072723;28;46159;-59
2023/05/26 02:45:12;;;;;;;;;17.20;15.40;;;;;17.56;53.03;101924.81;2071849;28;46570;-62
2023/05/26 02:46:13;;;;;;;;;18.00;15.25;;;;;17.54;52.99;101927.53;2072803;28;45588;-63
2023/05/26 02:47:14;;;;;;;;;17.20;16.00;;;;;17.54;53.15;101932.03;2063407;28;46360;-62
2023/05/26 02:48:14;;;;;;;;;14.00;11.50;;;;;17.51;53.28;101927.63;2063048;28;45775;-62
2023/05/26 02:49:15;;;;;;;;;15.75;15.75;;;;;17.51;53.25;101932.09;2072328;28;45591;-62
2023/05/26 02:50:17;;;;;;;;;14.00;12.50;;;;;17.49;53.39;101928.59;2071351;28;45604;-60
2023/05/26 02:51:17;;;;;;;;;18.00;18.00;;;;;17.47;53.39;101930.44;2072485;28;45995;-59
2023/05/26 02:52:18;;;;;;;;;16.25;16.00;;;;;17.47;53.33;101927.78;2072981;28;47628;-61
2023/05/26 02:53:19;;;;;;;;;14.25;14.25;;;;;17.47;53.37;101917.03;2078911;28;45890;-62
2023/05/26 02:54:19;;;;;;;;;14.60;14.60;;;;;17.47;53.43;101927.78;2074760;28;45518;-61
2023/05/26 02:55:21;;;;;;;;;15.00;14.75;;;;;17.47;53.19;101925.09;2070905;28;46270;-63
2023/05/26 02:56:21;;;;;;;;;13.80;12.80;;;;;17.46;53.40;101926.00;2071288;28;48108;-64
2023/05/26 02:57:22;;;;;;;;;15.25;14.75;;;;;17.47;53.82;101922.41;2071559;28;45059;-63
2023/05/26 02:58:22;;;;;;;;;13.25;13.25;;;;;17.46;53.62;101923.31;2071597;28;46272;-62
2023/05/26 02:59:23;;;;;;;;;15.00;14.00;;;;;17.45;53.52;101924.25;2072223;28;46458;-61
2023/05/26 03:00:23;;;;;;;;;16.75;15.50;;;;;17.44;53.33;101926.06;2071132;28;46589;-60
2023/05/26 03:01:24;;;;;;;;;14.75;14.25;;;;;17.42;53.29;101924.38;2070915;28;46210;-61
2023/05/26 03:02:25;;;;;;;;;13.40;12.00;;;;;17.42;53.59;101927.91;2073051;28;45491;-62
2023/05/26 03:03:26;;;;;;;;;15.50;14.50;;;;;17.40;53.67;101932.44;2071695;28;46609;-60
2023/05/26 03:04:26;;;;;;;;;19.00;16.20;;;;;17.39;53.74;101927.13;2075184;28;46899;-62
2023/05/26 03:05:26;;;;;;;;;12.75;12.75;;;;;17.38;53.53;101920.88;2071271;28;46224;-61
2023/05/26 03:06:27;;;;;;;;;13.00;12.00;;;;;17.37;53.30;101929.84;2071616;28;47880;-59
2023/05/26 03:07:27;;;;;;;;;13.25;13.25;;;;;17.38;53.67;101934.28;2070963;28;46688;-62
2023/05/26 03:08:28;;;;;;;;;14.00;14.00;;;;;17.38;54.00;101930.72;2071636;28;46689;-63
2023/05/26 03:09:28;;;;;;;;;12.00;11.75;;;;;17.35;53.38;101924.53;2072021;28;46048;-61
2023/05/26 03:10:28;;;;;;;;;14.75;12.25;;;;;17.34;53.49;101933.50;2073373;28;45851;-60
2023/05/26 03:11:28;;;;;;;;;16.00;14.25;;;;;17.34;53.71;101924.59;2071893;28;46432;-59
2023/05/26 03:12:29;;;;;;;;;12.75;12.75;;;;;17.34;53.74;101922.78;2076556;28;47610;-60
2023/05/26 03:13:29;;;;;;;;;13.00;13.00;;;;;17.34;53.41;101919.22;2069137;28;45786;-60
2023/05/26 03:14:30;;;;;;;;;14.00;14.00;;;;;17.33;53.63;101920.16;2070784;28;47186;-63
2023/05/26 03:15:35;;;;;;;;;17.00;16.00;;;;;17.32;53.90;101921.06;2071658;28;46506;-60
2023/05/26 03:16:35;;;;;;;;;14.60;14.60;;;;;17.32;53.80;101915.72;2071503;28;47603;-62
2023/05/26 03:17:36;;;;;;;;;14.50;12.25;;;;;17.32;53.91;101915.72;2072050;28;46880;-60
2023/05/26 03:18:37;;;;;;;;;8.25;8.25;;;;;17.31;53.97;101917.50;2071204;28;45872;-60
2023/05/26 03:19:37;;;;;;;;;13.40;11.60;;;;;17.30;54.06;101915.75;2071915;28;45664;-62
2023/05/26 03:20:37;;;;;;;;;9.50;9.50;;;;;17.28;53.79;101911.38;2072383;28;45834;-63
2023/05/26 03:21:38;;;;;;;;;16.00;14.00;;;;;17.28;53.94;101914.06;2071466;28;46770;-60
2023/05/26 03:22:38;;;;;;;;;12.75;12.00;;;;;17.26;53.93;101908.69;2071904;28;47643;-61
2023/05/26 03:23:38;;;;;;;;;14.75;12.25;;;;;17.25;53.51;101925.72;2076458;28;46485;-62
2023/05/26 03:24:39;;;;;;;;;14.25;12.75;;;;;17.24;53.75;101917.72;2077967;28;45991;-61
2023/05/26 03:25:40;;;;;;;;;17.25;15.25;;;;;17.23;53.74;101913.28;2072314;28;45592;-61
2023/05/26 03:26:40;;;;;;;;;13.40;13.40;;;;;17.22;53.83;101922.28;2075626;28;45982;-61
2023/05/26 03:27:41;;;;;;;;;12.75;11.75;;;;;17.20;54.01;101916.97;2078779;28;45082;-61
2023/05/26 03:28:41;;;;;;;;;14.25;12.75;;;;;17.19;53.65;101920.56;2071846;28;45028;-62
2023/05/26 03:29:41;;;;;;;;;13.75;13.75;;;;;17.21;53.92;101925.88;2072844;28;45543;-62
2023/05/26 03:30:42;;;;;;;;;13.50;13.00;;;;;17.20;53.90;101921.44;2079813;28;46293;-62
2023/05/26 03:31:42;;;;;;;;;15.50;14.00;;;;;17.20;54.01;101925.00;2075696;28;45417;-61
2023/05/26 03:32:42;;;;;;;;;6.00;5.00;;;;;17.21;54.03;101920.50;2071960;28;45895;-61
2023/05/26 03:33:45;;;;;;;;;14.00;13.75;;;;;17.21;53.91;101916.03;2072912;28;46612;-61
2023/05/26 03:34:45;;;;;;;;;17.60;13.00;;;;;17.22;53.60;101922.28;2076129;28;45773;-63
2023/05/26 03:35:46;;;;;;;;;12.50;9.75;;;;;17.22;53.90;101922.28;2072266;28;45492;-61
2023/05/26 03:36:48;;;;;;;;;11.50;11.25;;;;;17.22;53.99;101920.47;2079578;28;45504;-61
2023/05/26 03:37:49;;;;;;;;;14.60;12.00;;;;;17.22;53.96;101917.78;2073064;28;45223;-62
2023/05/26 03:38:49;;;;;;;;;11.00;10.50;;;;;17.23;53.74;101913.28;2071864;28;48415;-60
2023/05/26 03:39:51;;;;;;;;;13.25;12.00;;;;;17.22;53.97;101925.81;2077287;28;46206;-62
2023/05/26 03:40:51;;;;;;;;;12.20;11.80;;;;;17.22;54.07;101919.59;2080035;28;45368;-62
2023/05/26 03:41:51;;;;;;;;;18.00;14.50;;;;;17.22;54.05;101917.78;2073372;28;46270;-62
2023/05/26 03:42:52;;;;;;;;;17.00;14.50;;;;;17.21;53.91;101918.72;2075265;28;45578;-59
2023/05/26 03:43:52;;;;;;;;;14.50;9.75;;;;;17.19;53.70;101923.25;2080352;28;46111;-61
2023/05/26 03:44:52;;;;;;;;;13.00;13.00;;;;;17.18;54.22;101913.44;2072741;28;45112;-61
2023/05/26 03:45:53;;;;;;;;;12.00;11.25;;;;;17.17;54.01;101911.69;2073344;28;45927;-60
2023/05/26 03:46:53;;;;;;;;;12.00;11.75;;;;;17.17;53.97;101917.06;2079276;28;45477;-62
2023/05/26 03:47:53;;;;;;;;;15.50;15.00;;;;;17.17;54.00;101922.41;2078877;28;45845;-61
2023/05/26 03:48:54;;;;;;;;;12.25;11.00;;;;;17.17;54.04;101929.59;2072112;28;45372;-64
2023/05/26 03:49:54;;;;;;;;;13.50;10.75;;;;;17.14;54.13;101909.06;2063909;28;45743;-61
2023/05/26 03:50:55;;;;;;;;;14.50;12.75;;;;;17.15;53.82;101918.00;2074629;28;46590;-62
2023/05/26 03:51:55;;;;;;;;;12.00;11.25;;;;;17.15;53.91;101918.91;2078315;28;46650;-62
2023/05/26 03:52:56;;;;;;;;;11.50;10.75;;;;;17.14;54.07;101911.75;2072793;28;46517;-60
2023/05/26 03:53:56;;;;;;;;;16.50;14.25;;;;;17.13;53.93;101907.31;2070992;28;46721;-61
2023/05/26 03:54:57;;;;;;;;;12.25;12.25;;;;;17.12;54.17;101910.94;2066346;28;45581;-60
2023/05/26 03:55:57;;;;;;;;;14.00;12.00;;;;;17.11;53.76;101905.63;2070254;28;46548;-60
2023/05/26 03:56:57;;;;;;;;;8.00;7.25;;;;;17.09;54.24;101910.16;2072053;28;46629;-61
2023/05/26 03:57:57;;;;;;;;;11.50;10.75;;;;;17.08;54.10;101911.94;2072327;28;44960;-62
2023/05/26 03:58:58;;;;;;;;;12.00;12.00;;;;;17.07;54.06;101907.53;2070294;28;45829;-63
2023/05/26 03:59:58;;;;;;;;;13.00;12.50;;;;;17.07;53.74;101915.56;2072896;28;45547;-62
2023/05/26 04:00:59;;;;;;;;;14.33;14.33;;;;;17.06;54.08;101909.31;2072380;28;46492;-62
2023/05/26 04:02:00;;;;;;;;;12.40;11.00;;;;;17.06;54.08;101913.81;2073448;28;45785;-61
2023/05/26 04:03:00;;;;;;;;;12.67;12.00;;;;;17.05;54.11;101907.56;2072566;28;45786;-60
2023/05/26 04:04:01;;;;;;;;;15.67;11.67;;;;;17.07;53.89;101910.19;2072868;28;48872;-62
2023/05/26 04:05:02;;;;;;;;;13.67;12.67;;;;;17.06;54.17;101917.38;2070418;28;46278;-60
2023/05/26 04:06:02;;;;;;;;;10.80;10.60;;;;;17.06;54.08;101908.44;2072128;28;45978;-60
2023/05/26 04:07:04;;;;;;;;;15.25;14.00;;;;;17.06;54.17;101909.31;2075062;28;46179;-60
2023/05/26 04:08:05;;;;;;;;;14.00;12.80;;;;;17.06;53.89;101908.44;2080409;28;46479;-61
2023/05/26 04:09:05;;;;;;;;;14.50;12.25;;;;;17.05;53.98;101909.38;2073219;28;46099;-61
2023/05/26 04:10:06;;;;;;;;;12.75;12.75;;;;;17.03;54.22;101914.78;2073126;28;47135;-61
2023/05/26 04:11:06;;;;;;;;;12.00;11.25;;;;;17.03;54.03;101914.78;2075551;28;45680;-60
2023/05/26 04:12:07;;;;;;;;;18.00;14.00;;;;;17.01;54.17;101913.91;2076595;28;45594;-62
2023/05/26 04:13:07;;;;;;;;;13.25;11.50;;;;;17.00;54.15;101908.59;2079960;28;46239;-61
2023/05/26 04:14:08;;;;;;;;;13.25;13.00;;;;;16.99;54.43;101913.09;2080520;28;45577;-63
2023/05/26 04:15:09;;;;;;;;;11.50;10.25;;;;;16.98;54.08;101913.13;2070562;28;46151;-61
2023/05/26 04:16:10;;;;;;;;;13.80;13.00;;;;;16.97;54.37;101909.59;2069753;28;46895;-62
2023/05/26 04:17:10;;;;;;;;;12.00;10.00;;;;;16.98;54.02;101913.13;2071612;28;46607;-60
2023/05/26 04:18:10;;;;;;;;;13.25;12.00;;;;;16.99;53.99;101912.22;2071726;28;46035;-61
2023/05/26 04:19:11;;;;;;;;;11.75;11.75;;;;;16.99;54.36;101917.59;2069763;28;47768;-59
2023/05/26 04:20:11;;;;;;;;;15.00;15.00;;;;;16.98;54.20;101913.13;2077195;28;46267;-62
2023/05/26 04:21:11;;;;;;;;;18.00;15.25;;;;;17.00;54.26;101908.59;2079310;28;46178;-61
2023/05/26 04:22:12;;;;;;;;;10.00;8.25;;;;;16.99;54.44;101912.22;2077480;28;46819;-62
2023/05/26 04:23:13;;;;;;;;;13.00;13.00;;;;;16.98;54.05;101910.47;2071668;28;46580;-62
2023/05/26 04:24:13;;;;;;;;;15.75;13.75;;;;;16.98;53.96;101907.78;2072469;28;46759;-62
2023/05/26 04:25:13;;;;;;;;;12.00;11.25;;;;;16.97;54.27;101912.25;2075245;28;45571;-63
2023/05/26 04:26:16;;;;;;;;;15.25;14.25;;;;;16.98;53.88;101914.03;2072173;28;45523;-61
2023/05/26 04:27:16;;;;;;;;;15.60;13.80;;;;;16.97;54.09;101914.94;2072788;28;46621;-62
2023/05/26 04:28:17;;;;;;;;;13.50;12.00;;;;;16.97;53.95;101920.31;2076425;28;47128;-61
2023/05/26 04:29:20;;;;;;;;;16.40;11.80;;;;;16.96;53.94;101923.03;2078802;28;45737;-62
2023/05/26 04:30:20;;;;;;;;;16.60;12.00;;;;;16.96;54.33;101920.34;2080241;28;45085;-62
2023/05/26 04:31:20;;;;;;;;;15.00;13.50;;;;;16.95;54.23;101918.59;2076697;28;46283;-61
2023/05/26 04:32:21;;;;;;;;;12.50;10.50;;;;;16.95;54.26;101915.91;2073440;28;45694;-62
2023/05/26 04:33:23;;;;;;;;;14.20;12.80;;;;;16.93;54.33;101917.78;2071287;28;45962;-61
2023/05/26 04:34:23;;;;;;;;;11.60;11.60;;;;;16.92;54.23;101921.38;2073618;28;46632;-61
2023/05/26 04:35:24;;;;;;;;;14.00;11.25;;;;;16.92;54.10;101922.25;2074967;28;45732;-62
2023/05/26 04:36:25;;;;;;;;;12.00;12.00;;;;;16.89;54.41;101916.97;2077913;28;46027;-61
2023/05/26 04:37:26;;;;;;;;;11.00;11.00;;;;;16.91;54.43;101922.31;2080131;28;46639;-64
2023/05/26 04:38:26;;;;;;;;;13.40;13.40;;;;;16.89;54.61;101922.31;2080219;28;45671;-63
2023/05/26 04:39:27;;;;;;;;;10.25;10.00;;;;;16.89;54.50;101922.31;2075863;28;45525;-63
2023/05/26 04:40:27;;;;;;;;;15.25;13.00;;;;;16.91;54.27;101923.19;2078576;28;46587;-63